Hovedside
METAR-TAF:

METAR-TAF

Lufthavner :

Maré, Ny-Caledonia

breddegrad: 21-28-53S, lengdegrad: 168-02-15E, høyde over havet: 42 m

METAR: fraværende

Tid: 04:21 (17:21 UTC)

Varsel

Denne rapporten ble laget for 1 time og 44 minutter siden, klokken 15:37 UTC
Varsel gyldig fra 15. klokken 15 UTC til 16. klokken 12 UTC
Vind 2 kt fra skiftende retning
Sikt 10 km eller mer
Spredte skyer i en høyde av 4000 ft
Brutte skyer i en høyde av 6000 ft
Sannsynlighet 40% :
Midlertidig
fra 15. klokken 15 UTC til 15. klokken 19 UTC
Sikt: 0800 m
tåke
Blir
fra 15. klokken 22 UTC til 15. klokken 24 UTC
Vind 12 kt fra Sør-sørvest
Midlertidig
fra 16. klokken 00 UTC til 16. klokken 10 UTC
Brutte skyer i en høyde av 1400 ft
regnbyger,

TAF: NWWR 151537Z 1515/1612 VRB02KT 9999 SCT040 BKN060 PROB40 TEMPO 1515/1519 0800 FG VV/// BECMG 1522/1524 20012KT TEMPO 1600/1610 SHRA BKN014

Værobservasjoner og værvarsel for over 4000 flyplasser (METAR- og TAF-rapporter).

Tilgjengelige stasjoner er representert av de røde og gule prikkene på kartet.

Hold musepekeren over prikken for å se navnet på stasjonen.

Klikk så for å se værobservasjoner og -varsler.

For å forandre kartet kan du klikke på den grønne knappen med svart kryss for å zoome inn, på den grønne knappen med strek for å zoome ut, eller på de grønne pilene for å se tilstøtende kart.


METAR-TAF: